Hampton, United Kingdom
Current Conditions -  °F | °C
As of 8:20 PM on Wednesday 28 Jan 2015 (Local Time) from EGLL Reporting Station
Clear Clear  
Wind Chill: 30°   Ceiling: Unl
Heat Index: 39°   Visibility: 6mi
Dew Point: 28°   Wind: 18mph
Humidity: 65%   Direction: 260°W
Pressure: 29.59"   Gusts: NA
Location:  51.43°N, 0.37°W
Report Text: EGLL 282020Z 26016KT CAVOK 04/M02 Q1002 NOSIG
Loading
Personal Weather Stations






























Interactive Weather Map New forecast layout! Learn more

10-Day Weather Forecast

Advertisements
Track Severe Weather on mobile